sensor_id;sensor_type;location;lat;lon;timestamp;pressure;altitude;pressure_sealevel;temperature;humidity
71151;BME280;59071;42.138;24.768;2023-07-08T00:00:26;99534.50;;;25.82;52.50
71151;BME280;59071;42.138;24.768;2023-07-08T00:02:52;99532.75;;;25.86;52.24
71151;BME280;59071;42.138;24.768;2023-07-08T00:05:21;99530.34;;;26.07;51.54
71151;BME280;59071;42.138;24.768;2023-07-08T00:07:47;99528.47;;;26.48;50.47
71151;BME280;59071;42.138;24.768;2023-07-08T00:10:23;99522.31;;;26.02;51.47
71151;BME280;59071;42.138;24.768;2023-07-08T00:12:52;99533.56;;;25.87;51.88
71151;BME280;59071;42.138;24.768;2023-07-08T00:15:18;99529.09;;;26.13;51.09
71151;BME280;59071;42.138;24.768;2023-07-08T00:17:46;99529.56;;;26.07;51.14
71151;BME280;59071;42.138;24.768;2023-07-08T00:20:21;99538.84;;;26.06;50.97
71151;BME280;59071;42.138;24.768;2023-07-08T00:22:48;99531.31;;;25.89;51.05
71151;BME280;59071;42.138;24.768;2023-07-08T00:25:16;99535.69;;;26.12;50.43
71151;BME280;59071;42.138;24.768;2023-07-08T00:27:42;99529.09;;;26.13;50.20
71151;BME280;59071;42.138;24.768;2023-07-08T00:30:23;99527.84;;;26.20;50.06
71151;BME280;59071;42.138;24.768;2023-07-08T00:32:48;99524.09;;;26.07;50.46
71151;BME280;59071;42.138;24.768;2023-07-08T00:35:22;99527.53;;;26.21;49.98
71151;BME280;59071;42.138;24.768;2023-07-08T00:40:21;99536.41;;;26.04;50.77
71151;BME280;59071;42.138;24.768;2023-07-08T00:42:48;99529.44;;;25.89;51.00
71151;BME280;59071;42.138;24.768;2023-07-08T00:45:50;99536.00;;;26.11;50.73
71151;BME280;59071;42.138;24.768;2023-07-08T00:48:25;99532.97;;;26.12;50.64
71151;BME280;59071;42.138;24.768;2023-07-08T00:50:53;99539.59;;;26.29;50.10
71151;BME280;59071;42.138;24.768;2023-07-08T00:53:30;99544.59;;;26.04;50.54
71151;BME280;59071;42.138;24.768;2023-07-08T00:56:01;99551.63;;;25.60;51.81
71151;BME280;59071;42.138;24.768;2023-07-08T00:58:37;99557.41;;;25.95;51.14
71151;BME280;59071;42.138;24.768;2023-07-08T01:01:05;99542.78;;;25.77;51.32
71151;BME280;59071;42.138;24.768;2023-07-08T01:06:18;99540.59;;;25.43;52.50
71151;BME280;59071;42.138;24.768;2023-07-08T01:08:45;99548.59;;;25.62;51.90
71151;BME280;59071;42.138;24.768;2023-07-08T01:11:11;99559.44;;;25.75;51.56
71151;BME280;59071;42.138;24.768;2023-07-08T01:13:40;99561.94;;;25.27;52.56
71151;BME280;59071;42.138;24.768;2023-07-08T01:16:08;99567.03;;;25.42;52.54
71151;BME280;59071;42.138;24.768;2023-07-08T01:18:33;99556.47;;;25.13;52.85
71151;BME280;59071;42.138;24.768;2023-07-08T01:21:03;99558.88;;;25.14;53.06
71151;BME280;59071;42.138;24.768;2023-07-08T01:23:32;99564.84;;;25.03;53.44
71151;BME280;59071;42.138;24.768;2023-07-08T01:25:59;99557.38;;;25.36;52.46
71151;BME280;59071;42.138;24.768;2023-07-08T01:28:27;99562.09;;;25.44;52.32
71151;BME280;59071;42.138;24.768;2023-07-08T01:30:54;99568.19;;;25.13;53.13
71151;BME280;59071;42.138;24.768;2023-07-08T01:33:20;99570.00;;;25.04;53.28
71151;BME280;59071;42.138;24.768;2023-07-08T01:35:50;99565.03;;;25.20;52.86
71151;BME280;59071;42.138;24.768;2023-07-08T01:38:25;99558.69;;;25.11;53.10
71151;BME280;59071;42.138;24.768;2023-07-08T01:40:56;99561.31;;;25.16;52.97
71151;BME280;59071;42.138;24.768;2023-07-08T01:43:22;99562.44;;;25.01;53.10
71151;BME280;59071;42.138;24.768;2023-07-08T01:45:49;99561.72;;;25.09;53.20
71151;BME280;59071;42.138;24.768;2023-07-08T01:48:19;99572.81;;;24.99;53.30
71151;BME280;59071;42.138;24.768;2023-07-08T01:50:54;99570.66;;;25.38;52.31
71151;BME280;59071;42.138;24.768;2023-07-08T01:53:38;99572.31;;;25.25;52.64
71151;BME280;59071;42.138;24.768;2023-07-08T01:56:06;99572.00;;;25.26;52.36
71151;BME280;59071;42.138;24.768;2023-07-08T01:58:32;99564.47;;;25.23;52.45
71151;BME280;59071;42.138;24.768;2023-07-08T02:00:58;99576.22;;;25.18;52.50
71151;BME280;59071;42.138;24.768;2023-07-08T02:03:24;99566.56;;;25.26;52.29
71151;BME280;59071;42.138;24.768;2023-07-08T02:05:50;99579.66;;;25.24;52.24
71151;BME280;59071;42.138;24.768;2023-07-08T02:08:15;99563.63;;;25.09;52.34
71151;BME280;59071;42.138;24.768;2023-07-08T02:10:42;99584.38;;;25.18;52.29
71151;BME280;59071;42.138;24.768;2023-07-08T02:13:08;99588.44;;;25.35;51.86
71151;BME280;59071;42.138;24.768;2023-07-08T02:15:33;99583.47;;;25.37;51.87
71151;BME280;59071;42.138;24.768;2023-07-08T02:17:59;99589.56;;;25.06;52.51
71151;BME280;59071;42.138;24.768;2023-07-08T02:20:25;99576.75;;;25.07;52.54
71151;BME280;59071;42.138;24.768;2023-07-08T02:22:50;99590.38;;;24.79;53.10
71151;BME280;59071;42.138;24.768;2023-07-08T02:25:15;99589.25;;;24.94;52.40
71151;BME280;59071;42.138;24.768;2023-07-08T02:27:41;99585.72;;;24.93;52.59
71151;BME280;59071;42.138;24.768;2023-07-08T02:30:08;99590.56;;;24.96;52.53
71151;BME280;59071;42.138;24.768;2023-07-08T02:32:34;99591.06;;;24.98;52.52
71151;BME280;59071;42.138;24.768;2023-07-08T02:35:01;99604.59;;;25.04;52.41
71151;BME280;59071;42.138;24.768;2023-07-08T02:37:29;99605.38;;;25.04;52.17
71151;BME280;59071;42.138;24.768;2023-07-08T02:39:54;99611.22;;;24.97;52.68
71151;BME280;59071;42.138;24.768;2023-07-08T02:42:20;99604.44;;;24.67;53.19
71151;BME280;59071;42.138;24.768;2023-07-08T02:44:45;99608.91;;;24.77;53.19
71151;BME280;59071;42.138;24.768;2023-07-08T02:47:11;99597.59;;;24.97;52.55
71151;BME280;59071;42.138;24.768;2023-07-08T02:49:36;99613.53;;;24.76;53.12
71151;BME280;59071;42.138;24.768;2023-07-08T02:52:02;99617.06;;;24.91;52.49
71151;BME280;59071;42.138;24.768;2023-07-08T02:54:28;99613.72;;;24.94;52.49
71151;BME280;59071;42.138;24.768;2023-07-08T02:56:53;99618.09;;;24.95;52.33
71151;BME280;59071;42.138;24.768;2023-07-08T02:59:19;99611.31;;;25.06;52.21
71151;BME280;59071;42.138;24.768;2023-07-08T03:01:44;99619.00;;;24.90;52.60
71151;BME280;59071;42.138;24.768;2023-07-08T03:04:12;99627.03;;;24.82;52.49
71151;BME280;59071;42.138;24.768;2023-07-08T03:06:40;99622.00;;;25.03;51.90
71151;BME280;59071;42.138;24.768;2023-07-08T03:09:06;99627.44;;;24.75;52.46
71151;BME280;59071;42.138;24.768;2023-07-08T03:11:31;99634.19;;;24.64;53.03
71151;BME280;59071;42.138;24.768;2023-07-08T03:13:56;99642.00;;;24.51;52.98
71151;BME280;59071;42.138;24.768;2023-07-08T03:16:22;99645.16;;;24.72;52.57
71151;BME280;59071;42.138;24.768;2023-07-08T03:18:47;99639.44;;;25.02;51.94
71151;BME280;59071;42.138;24.768;2023-07-08T03:21:15;99642.94;;;24.61;52.79
71151;BME280;59071;42.138;24.768;2023-07-08T03:23:41;99642.56;;;24.81;52.21
71151;BME280;59071;42.138;24.768;2023-07-08T03:26:08;99641.03;;;24.75;52.48
71151;BME280;59071;42.138;24.768;2023-07-08T03:28:37;99651.13;;;24.74;52.41
71151;BME280;59071;42.138;24.768;2023-07-08T03:31:03;99651.19;;;24.69;52.51
71151;BME280;59071;42.138;24.768;2023-07-08T03:33:28;99647.19;;;24.81;52.13
71151;BME280;59071;42.138;24.768;2023-07-08T03:35:55;99663.03;;;24.92;51.71
71151;BME280;59071;42.138;24.768;2023-07-08T03:38:20;99662.03;;;25.16;51.39
71151;BME280;59071;42.138;24.768;2023-07-08T03:40:45;99664.06;;;24.96;51.74
71151;BME280;59071;42.138;24.768;2023-07-08T03:43:11;99670.28;;;25.11;51.58
71151;BME280;59071;42.138;24.768;2023-07-08T03:45:36;99675.53;;;24.93;51.79
71151;BME280;59071;42.138;24.768;2023-07-08T03:48:02;99687.81;;;24.77;52.34
71151;BME280;59071;42.138;24.768;2023-07-08T03:50:28;99676.94;;;24.91;52.26
71151;BME280;59071;42.138;24.768;2023-07-08T03:52:54;99680.97;;;25.07;51.72
71151;BME280;59071;42.138;24.768;2023-07-08T03:55:21;99676.81;;;24.82;52.67
71151;BME280;59071;42.138;24.768;2023-07-08T03:57:46;99682.31;;;24.96;52.10
71151;BME280;59071;42.138;24.768;2023-07-08T04:00:13;99680.16;;;24.93;52.11
71151;BME280;59071;42.138;24.768;2023-07-08T04:02:39;99696.66;;;24.69;52.62
71151;BME280;59071;42.138;24.768;2023-07-08T04:05:05;99696.84;;;24.72;52.66
71151;BME280;59071;42.138;24.768;2023-07-08T04:07:31;99698.44;;;24.92;52.21
71151;BME280;59071;42.138;24.768;2023-07-08T04:09:57;99698.22;;;25.03;51.87
71151;BME280;59071;42.138;24.768;2023-07-08T04:12:22;99704.31;;;24.81;52.51
71151;BME280;59071;42.138;24.768;2023-07-08T04:14:48;99699.00;;;24.89;52.38
71151;BME280;59071;42.138;24.768;2023-07-08T04:17:14;99698.84;;;25.13;51.68
71151;BME280;59071;42.138;24.768;2023-07-08T04:19:39;99694.59;;;25.07;51.88
71151;BME280;59071;42.138;24.768;2023-07-08T04:22:05;99696.81;;;25.05;51.95
71151;BME280;59071;42.138;24.768;2023-07-08T04:24:31;99699.69;;;25.28;51.40
71151;BME280;59071;42.138;24.768;2023-07-08T04:26:58;99710.25;;;25.43;51.41
71151;BME280;59071;42.138;24.768;2023-07-08T04:29:23;99710.06;;;25.53;51.24
71151;BME280;59071;42.138;24.768;2023-07-08T04:31:49;99694.28;;;25.78;50.29
71151;BME280;59071;42.138;24.768;2023-07-08T04:34:15;99695.78;;;25.98;50.08
71151;BME280;59071;42.138;24.768;2023-07-08T04:36:42;99680.75;;;26.46;48.76
71151;BME280;59071;42.138;24.768;2023-07-08T04:39:09;99683.56;;;26.86;47.90
71151;BME280;59071;42.138;24.768;2023-07-08T04:41:37;99681.78;;;27.61;46.38
71151;BME280;59071;42.138;24.768;2023-07-08T04:44:09;99679.53;;;27.81;45.34
71151;BME280;59071;42.138;24.768;2023-07-08T04:49:17;99664.53;;;27.43;45.94
71151;BME280;59071;42.138;24.768;2023-07-08T04:51:42;99670.22;;;27.24;46.24
71151;BME280;59071;42.138;24.768;2023-07-08T04:54:08;99674.03;;;27.55;45.91
71151;BME280;59071;42.138;24.768;2023-07-08T04:56:42;99665.19;;;27.49;45.65
71151;BME280;59071;42.138;24.768;2023-07-08T04:59:13;99660.16;;;27.25;45.95
71151;BME280;59071;42.138;24.768;2023-07-08T05:01:40;99670.94;;;27.39;46.18
71151;BME280;59071;42.138;24.768;2023-07-08T05:04:06;99661.41;;;28.20;44.35
71151;BME280;59071;42.138;24.768;2023-07-08T05:06:33;99665.06;;;28.59;43.25
71151;BME280;59071;42.138;24.768;2023-07-08T05:09:00;99668.44;;;29.03;42.30
71151;BME280;59071;42.138;24.768;2023-07-08T05:11:25;99662.31;;;29.44;41.49
71151;BME280;59071;42.138;24.768;2023-07-08T05:13:51;99670.06;;;29.04;42.25
71151;BME280;59071;42.138;24.768;2023-07-08T05:16:17;99663.84;;;28.86;42.21
71151;BME280;59071;42.138;24.768;2023-07-08T05:18:44;99669.06;;;28.44;43.15
71151;BME280;59071;42.138;24.768;2023-07-08T05:21:10;99670.34;;;29.20;41.45
71151;BME280;59071;42.138;24.768;2023-07-08T05:23:35;99669.59;;;29.91;40.50
71151;BME280;59071;42.138;24.768;2023-07-08T05:26:02;99661.81;;;30.35;39.27
71151;BME280;59071;42.138;24.768;2023-07-08T05:28:28;99662.53;;;30.45;39.19
71151;BME280;59071;42.138;24.768;2023-07-08T05:30:54;99672.78;;;29.42;40.62
71151;BME280;59071;42.138;24.768;2023-07-08T05:33:26;99662.63;;;29.43;40.94
71151;BME280;59071;42.138;24.768;2023-07-08T05:35:52;99664.16;;;29.53;40.28
71151;BME280;59071;42.138;24.768;2023-07-08T05:38:18;99658.72;;;29.95;40.24
71151;BME280;59071;42.138;24.768;2023-07-08T05:40:48;99662.66;;;30.06;39.84
71151;BME280;59071;42.138;24.768;2023-07-08T05:43:14;99653.88;;;29.50;40.33
71151;BME280;59071;42.138;24.768;2023-07-08T05:45:40;99645.38;;;29.93;40.14
71151;BME280;59071;42.138;24.768;2023-07-08T05:48:05;99647.56;;;30.00;39.58
71151;BME280;59071;42.138;24.768;2023-07-08T05:50:30;99651.28;;;30.16;39.42
71151;BME280;59071;42.138;24.768;2023-07-08T05:52:56;99650.22;;;29.46;40.30
71151;BME280;59071;42.138;24.768;2023-07-08T05:55:21;99638.56;;;29.70;39.61
71151;BME280;59071;42.138;24.768;2023-07-08T05:57:47;99637.63;;;30.74;37.97
71151;BME280;59071;42.138;24.768;2023-07-08T06:00:12;99638.44;;;30.75;37.75
71151;BME280;59071;42.138;24.768;2023-07-08T06:02:38;99646.56;;;30.84;37.74
71151;BME280;59071;42.138;24.768;2023-07-08T06:05:04;99639.03;;;30.93;36.83
71151;BME280;59071;42.138;24.768;2023-07-08T06:07:29;99640.13;;;30.55;37.37
71151;BME280;59071;42.138;24.768;2023-07-08T06:09:54;99644.31;;;31.10;36.68
71151;BME280;59071;42.138;24.768;2023-07-08T06:12:23;99634.97;;;30.53;37.66
71151;BME280;59071;42.138;24.768;2023-07-08T06:14:49;99631.88;;;30.67;37.28
71151;BME280;59071;42.138;24.768;2023-07-08T06:17:16;99640.31;;;30.50;38.10
71151;BME280;59071;42.138;24.768;2023-07-08T06:19:41;99636.41;;;30.17;38.06
71151;BME280;59071;42.138;24.768;2023-07-08T06:22:07;99629.94;;;30.55;37.94
71151;BME280;59071;42.138;24.768;2023-07-08T06:24:32;99633.22;;;30.94;36.82
71151;BME280;59071;42.138;24.768;2023-07-08T06:26:58;99629.19;;;31.16;36.31
71151;BME280;59071;42.138;24.768;2023-07-08T06:29:24;99630.19;;;31.61;35.77
71151;BME280;59071;42.138;24.768;2023-07-08T06:31:49;99633.34;;;31.75;35.37
71151;BME280;59071;42.138;24.768;2023-07-08T06:34:15;99630.09;;;31.58;35.59
71151;BME280;59071;42.138;24.768;2023-07-08T06:36:40;99622.88;;;31.53;35.95
71151;BME280;59071;42.138;24.768;2023-07-08T06:39:06;99629.69;;;32.56;34.67
71151;BME280;59071;42.138;24.768;2023-07-08T06:41:34;99627.56;;;32.97;33.95
71151;BME280;59071;42.138;24.768;2023-07-08T06:43:59;99637.00;;;33.12;33.25
71151;BME280;59071;42.138;24.768;2023-07-08T06:46:25;99641.59;;;32.76;34.04
71151;BME280;59071;42.138;24.768;2023-07-08T06:48:50;99634.31;;;32.52;34.25
71151;BME280;59071;42.138;24.768;2023-07-08T06:51:16;99640.66;;;32.40;34.17
71151;BME280;59071;42.138;24.768;2023-07-08T06:53:41;99638.88;;;32.92;33.14
71151;BME280;59071;42.138;24.768;2023-07-08T06:56:07;99633.59;;;33.54;31.98
71151;BME280;59071;42.138;24.768;2023-07-08T06:58:33;99638.50;;;32.78;32.79
71151;BME280;59071;42.138;24.768;2023-07-08T07:00:59;99642.44;;;32.32;33.65
71151;BME280;59071;42.138;24.768;2023-07-08T07:03:24;99647.22;;;32.20;33.44
71151;BME280;59071;42.138;24.768;2023-07-08T07:05:49;99645.63;;;32.79;33.39
71151;BME280;59071;42.138;24.768;2023-07-08T07:08:15;99646.13;;;33.32;31.89
71151;BME280;59071;42.138;24.768;2023-07-08T07:10:40;99634.50;;;32.59;32.41
71151;BME280;59071;42.138;24.768;2023-07-08T07:13:06;99652.47;;;32.85;32.71
71151;BME280;59071;42.138;24.768;2023-07-08T07:15:31;99649.56;;;32.49;32.74
71151;BME280;59071;42.138;24.768;2023-07-08T07:17:57;99648.03;;;32.36;32.98
71151;BME280;59071;42.138;24.768;2023-07-08T07:20:23;99650.66;;;31.76;34.58
71151;BME280;59071;42.138;24.768;2023-07-08T07:22:49;99631.03;;;32.62;33.45
71151;BME280;59071;42.138;24.768;2023-07-08T07:25:15;99647.84;;;32.29;33.45
71151;BME280;59071;42.138;24.768;2023-07-08T07:27:40;99666.72;;;32.14;33.41
71151;BME280;59071;42.138;24.768;2023-07-08T07:30:06;99669.53;;;31.90;33.87
71151;BME280;59071;42.138;24.768;2023-07-08T07:32:32;99666.38;;;32.16;33.74
71151;BME280;59071;42.138;24.768;2023-07-08T07:34:59;99674.66;;;31.51;34.13
71151;BME280;59071;42.138;24.768;2023-07-08T07:37:25;99676.94;;;31.24;35.31
71151;BME280;59071;42.138;24.768;2023-07-08T07:39:50;99682.78;;;31.35;35.58
71151;BME280;59071;42.138;24.768;2023-07-08T07:42:18;99684.50;;;31.27;35.52
71151;BME280;59071;42.138;24.768;2023-07-08T07:44:44;99673.03;;;31.13;35.68
71151;BME280;59071;42.138;24.768;2023-07-08T07:47:09;99667.28;;;31.67;35.34
71151;BME280;59071;42.138;24.768;2023-07-08T07:49:35;99670.28;;;31.62;35.04
71151;BME280;59071;42.138;24.768;2023-07-08T07:52:00;99663.41;;;32.09;34.90
71151;BME280;59071;42.138;24.768;2023-07-08T07:54:26;99678.19;;;32.17;34.06
71151;BME280;59071;42.138;24.768;2023-07-08T07:56:52;99684.28;;;31.32;34.85
71151;BME280;59071;42.138;24.768;2023-07-08T07:59:17;99677.50;;;31.05;35.09
71151;BME280;59071;42.138;24.768;2023-07-08T08:01:43;99683.13;;;31.33;34.79
71151;BME280;59071;42.138;24.768;2023-07-08T08:04:11;99673.25;;;32.10;34.59
71151;BME280;59071;42.138;24.768;2023-07-08T08:06:37;99680.38;;;32.67;32.92
71151;BME280;59071;42.138;24.768;2023-07-08T08:09:06;99685.81;;;31.95;34.21
71151;BME280;59071;42.138;24.768;2023-07-08T08:11:32;99689.63;;;31.41;34.49
71151;BME280;59071;42.138;24.768;2023-07-08T08:13:58;99685.88;;;31.70;33.84
71151;BME280;59071;42.138;24.768;2023-07-08T08:16:25;99682.09;;;31.13;34.20
71151;BME280;59071;42.138;24.768;2023-07-08T08:18:50;99688.84;;;31.65;33.86
71151;BME280;59071;42.138;24.768;2023-07-08T08:21:16;99691.41;;;32.55;32.88
71151;BME280;59071;42.138;24.768;2023-07-08T08:23:42;99673.78;;;32.44;32.67
71151;BME280;59071;42.138;24.768;2023-07-08T08:26:08;99690.69;;;33.02;32.08
71151;BME280;59071;42.138;24.768;2023-07-08T08:28:33;99680.88;;;32.57;32.62
71151;BME280;59071;42.138;24.768;2023-07-08T08:30:58;99678.41;;;32.40;32.69
71151;BME280;59071;42.138;24.768;2023-07-08T08:33:24;99679.72;;;32.02;33.58
71151;BME280;59071;42.138;24.768;2023-07-08T08:35:49;99680.06;;;32.28;33.16
71151;BME280;59071;42.138;24.768;2023-07-08T08:38:15;99683.03;;;32.36;32.91
71151;BME280;59071;42.138;24.768;2023-07-08T08:40:43;99683.66;;;33.05;32.25
71151;BME280;59071;42.138;24.768;2023-07-08T08:43:16;99685.47;;;33.13;31.18
71151;BME280;59071;42.138;24.768;2023-07-08T08:51:50;99686.53;;;32.48;31.87
71151;BME280;59071;42.138;24.768;2023-07-08T08:54:17;99697.38;;;32.29;32.21
71151;BME280;59071;42.138;24.768;2023-07-08T08:56:58;99692.53;;;32.66;31.55
71151;BME280;59071;42.138;24.768;2023-07-08T09:01:55;99701.25;;;33.48;30.46
71151;BME280;59071;42.138;24.768;2023-07-08T09:04:34;99704.38;;;33.15;30.64
71151;BME280;59071;42.138;24.768;2023-07-08T09:07:07;99705.34;;;33.06;31.35
71151;BME280;59071;42.138;24.768;2023-07-08T09:09:42;99706.31;;;32.82;31.62
71151;BME280;59071;42.138;24.768;2023-07-08T09:12:20;99705.50;;;32.66;31.88
71151;BME280;59071;42.138;24.768;2023-07-08T09:14:47;99695.78;;;32.56;32.79
71151;BME280;59071;42.138;24.768;2023-07-08T09:17:31;99687.78;;;33.11;31.26
71151;BME280;59071;42.138;24.768;2023-07-08T09:22:32;99693.88;;;32.88;31.14
71151;BME280;59071;42.138;24.768;2023-07-08T09:27:33;99686.03;;;32.30;32.21
71151;BME280;59071;42.138;24.768;2023-07-08T09:29:59;99680.41;;;32.27;32.71
71151;BME280;59071;42.138;24.768;2023-07-08T09:32:27;99684.09;;;32.91;31.75
71151;BME280;59071;42.138;24.768;2023-07-08T09:35:02;99676.53;;;32.88;31.85
71151;BME280;59071;42.138;24.768;2023-07-08T09:37:31;99666.97;;;33.65;31.05
71151;BME280;59071;42.138;24.768;2023-07-08T09:39:58;99664.38;;;34.11;29.88
71151;BME280;59071;42.138;24.768;2023-07-08T09:42:30;99665.91;;;33.54;30.06
71151;BME280;59071;42.138;24.768;2023-07-08T09:44:59;99659.88;;;33.83;30.89
71151;BME280;59071;42.138;24.768;2023-07-08T09:47:28;99651.47;;;33.60;30.56
71151;BME280;59071;42.138;24.768;2023-07-08T09:49:57;99645.47;;;34.13;29.89
71151;BME280;59071;42.138;24.768;2023-07-08T09:52:23;99643.84;;;33.54;29.93
71151;BME280;59071;42.138;24.768;2023-07-08T09:54:49;99632.78;;;34.28;29.87
71151;BME280;59071;42.138;24.768;2023-07-08T09:57:28;99643.59;;;33.98;29.36
71151;BME280;59071;42.138;24.768;2023-07-08T10:00:00;99634.53;;;34.17;29.56
71151;BME280;59071;42.138;24.768;2023-07-08T10:02:38;99637.06;;;33.86;29.50
71151;BME280;59071;42.138;24.768;2023-07-08T10:07:37;99633.88;;;33.49;30.52
71151;BME280;59071;42.138;24.768;2023-07-08T10:10:07;99625.59;;;33.84;29.60
71151;BME280;59071;42.138;24.768;2023-07-08T10:12:35;99629.88;;;34.01;29.40
71151;BME280;59071;42.138;24.768;2023-07-08T10:15:17;99624.94;;;33.72;30.00
71151;BME280;59071;42.138;24.768;2023-07-08T10:17:45;99636.53;;;33.26;30.69
71151;BME280;59071;42.138;24.768;2023-07-08T10:20:12;99633.69;;;33.06;30.61
71151;BME280;59071;42.138;24.768;2023-07-08T10:28:09;99613.69;;;33.80;29.37
71151;BME280;59071;42.138;24.768;2023-07-08T10:30:57;99613.66;;;34.39;29.75
71151;BME280;59071;42.138;24.768;2023-07-08T10:33:50;99607.47;;;33.83;30.21
71151;BME280;59071;42.138;24.768;2023-07-08T10:39:53;99603.19;;;34.28;28.56
71151;BME280;59071;42.138;24.768;2023-07-08T10:42:08;99598.16;;;33.72;29.48
71151;BME280;59071;42.138;24.768;2023-07-08T10:44:51;99596.47;;;33.87;28.94
71151;BME280;59071;42.138;24.768;2023-07-08T10:48:00;99586.69;;;35.05;28.00
71151;BME280;59071;42.138;24.768;2023-07-08T10:53:26;99591.91;;;34.83;27.62
71151;BME280;59071;42.138;24.768;2023-07-08T10:56:07;99574.44;;;35.02;28.00
71151;BME280;59071;42.138;24.768;2023-07-08T11:07:02;99572.59;;;35.40;27.17
71151;BME280;59071;42.138;24.768;2023-07-08T11:09:43;99583.81;;;35.21;26.81
71151;BME280;59071;42.138;24.768;2023-07-08T11:17:32;99564.84;;;34.70;27.47
71151;BME280;59071;42.138;24.768;2023-07-08T11:20:03;99570.97;;;34.82;27.22
71151;BME280;59071;42.138;24.768;2023-07-08T11:22:41;99563.09;;;34.61;28.30
71151;BME280;59071;42.138;24.768;2023-07-08T11:25:17;99568.56;;;34.35;28.11
71151;BME280;59071;42.138;24.768;2023-07-08T11:27:45;99576.47;;;34.13;28.17
71151;BME280;59071;42.138;24.768;2023-07-08T11:30:13;99566.38;;;34.21;28.26
71151;BME280;59071;42.138;24.768;2023-07-08T11:32:41;99560.50;;;34.69;28.83
71151;BME280;59071;42.138;24.768;2023-07-08T11:35:21;99569.53;;;33.61;29.25
71151;BME280;59071;42.138;24.768;2023-07-08T11:37:49;99554.47;;;33.74;29.12
71151;BME280;59071;42.138;24.768;2023-07-08T11:40:22;99562.31;;;33.17;29.79
71151;BME280;59071;42.138;24.768;2023-07-08T11:42:50;99558.88;;;34.21;28.65
71151;BME280;59071;42.138;24.768;2023-07-08T11:45:36;99546.84;;;34.10;28.64
71151;BME280;59071;42.138;24.768;2023-07-08T11:48:17;99547.31;;;34.85;28.16
71151;BME280;59071;42.138;24.768;2023-07-08T11:50:45;99543.06;;;34.91;27.53
71151;BME280;59071;42.138;24.768;2023-07-08T11:53:36;99545.09;;;34.44;28.51
71151;BME280;59071;42.138;24.768;2023-07-08T11:56:17;99553.66;;;34.62;28.50
71151;BME280;59071;42.138;24.768;2023-07-08T12:01:39;99551.22;;;33.53;29.00
71151;BME280;59071;42.138;24.768;2023-07-08T12:07:08;99553.25;;;33.95;29.18
71151;BME280;59071;42.138;24.768;2023-07-08T12:09:38;99550.25;;;34.96;28.40
71151;BME280;59071;42.138;24.768;2023-07-08T12:12:16;99542.91;;;35.37;27.31
71151;BME280;59071;42.138;24.768;2023-07-08T12:14:44;99531.06;;;35.37;27.12
71151;BME280;59071;42.138;24.768;2023-07-08T12:17:12;99542.53;;;34.82;28.15
71151;BME280;59071;42.138;24.768;2023-07-08T12:19:39;99524.63;;;34.49;27.81
71151;BME280;59071;42.138;24.768;2023-07-08T12:22:08;99538.19;;;34.35;27.91
71151;BME280;59071;42.138;24.768;2023-07-08T12:24:35;99530.81;;;34.16;28.26
71151;BME280;59071;42.138;24.768;2023-07-08T12:27:02;99542.78;;;34.23;28.13
71151;BME280;59071;42.138;24.768;2023-07-08T12:29:27;99542.91;;;34.11;28.47
71151;BME280;59071;42.138;24.768;2023-07-08T12:31:54;99546.00;;;33.86;28.71
71151;BME280;59071;42.138;24.768;2023-07-08T12:34:21;99542.22;;;33.56;28.61
71151;BME280;59071;42.138;24.768;2023-07-08T12:36:50;99538.75;;;33.78;29.14
71151;BME280;59071;42.138;24.768;2023-07-08T12:39:16;99550.94;;;33.58;29.44
71151;BME280;59071;42.138;24.768;2023-07-08T12:41:45;99555.81;;;33.09;29.58
71151;BME280;59071;42.138;24.768;2023-07-08T12:44:20;99561.91;;;33.93;28.98
71151;BME280;59071;42.138;24.768;2023-07-08T12:46:48;99560.31;;;33.73;28.70
71151;BME280;59071;42.138;24.768;2023-07-08T12:49:15;99564.47;;;33.82;27.83
71151;BME280;59071;42.138;24.768;2023-07-08T12:51:43;99579.81;;;33.44;28.09
71151;BME280;59071;42.138;24.768;2023-07-08T12:54:10;99603.31;;;33.19;30.25
71151;BME280;59071;42.138;24.768;2023-07-08T12:56:37;99600.84;;;32.66;31.83
71151;BME280;59071;42.138;24.768;2023-07-08T12:59:04;99581.81;;;31.72;33.44
71151;BME280;59071;42.138;24.768;2023-07-08T13:01:32;99573.47;;;31.56;33.53
71151;BME280;59071;42.138;24.768;2023-07-08T13:04:05;99598.47;;;31.39;33.85
71151;BME280;59071;42.138;24.768;2023-07-08T13:06:33;99597.59;;;31.47;34.12
71151;BME280;59071;42.138;24.768;2023-07-08T13:09:19;99598.13;;;30.67;36.20
71151;BME280;59071;42.138;24.768;2023-07-08T13:11:47;99606.81;;;30.11;37.48
71151;BME280;59071;42.138;24.768;2023-07-08T13:14:14;99597.38;;;29.15;38.78
71151;BME280;59071;42.138;24.768;2023-07-08T13:16:40;99601.41;;;29.60;37.93
71151;BME280;59071;42.138;24.768;2023-07-08T13:19:11;99628.19;;;29.84;37.83
71151;BME280;59071;42.138;24.768;2023-07-08T13:21:38;99636.41;;;29.33;39.64
71151;BME280;59071;42.138;24.768;2023-07-08T13:24:09;99645.97;;;28.89;41.76
71151;BME280;59071;42.138;24.768;2023-07-08T13:26:38;99641.06;;;29.03;45.25
71151;BME280;59071;42.138;24.768;2023-07-08T13:29:11;99645.63;;;28.25;48.64
71151;BME280;59071;42.138;24.768;2023-07-08T13:31:39;99652.03;;;27.68;52.65
71151;BME280;59071;42.138;24.768;2023-07-08T13:34:20;99662.03;;;28.17;51.53
71151;BME280;59071;42.138;24.768;2023-07-08T13:36:50;99657.91;;;27.36;51.66
71151;BME280;59071;42.138;24.768;2023-07-08T13:39:26;99653.78;;;27.56;52.95
71151;BME280;59071;42.138;24.768;2023-07-08T13:41:53;99660.72;;;27.79;51.79
71151;BME280;59071;42.138;24.768;2023-07-08T13:44:19;99656.06;;;27.80;52.62
71151;BME280;59071;42.138;24.768;2023-07-08T13:49:18;99676.47;;;27.65;55.54
71151;BME280;59071;42.138;24.768;2023-07-08T13:51:44;99676.06;;;27.32;57.25
71151;BME280;59071;42.138;24.768;2023-07-08T13:54:26;99675.13;;;27.45;55.14